Tropical Cyclones
[Index]
Main Index Home Page Stock Weather Photos Extreme Storms Discussion Storm News and Storm Chasing Reports Tropical Cyclones / Hurricanes / Typhoons Weather Data and Links Wild Fires / Bushfires Weather Observation Techniques Weather Picture Catalogue Tornado Pictures and Reports Stock Video Footage and DVDs for sale
Season 2004-2005 Tropical Cyclone CHAMBO Track Map
Season 2004-2005 Summaries (Operational Data): [AU] [SIO] [SPAC] [SH]
<<- Previous TC | 2004-2005 Season | Next TC ->>

click for intensity scale information  Lat/long Grid: Show Hide

 Date Labels: Show Hide

Operational Tropical Cyclone Data : JTWC Advisories

Name: CHAMBO
Number: 0506

23 Dec 2004 00:00 UTC to 02 Jan 2004 00:00 UTC

    date/time    lat    long     hPa   cat  kts
2004-12-23 00    7.5    87.4    1001         25          
2004-12-23 06    8.0    87.1     999         30          
2004-12-23 12    8.9    86.7     999         30          
2004-12-23 18    9.5    85.6     997         30          
2004-12-24 00   10.0    84.7     996         30          
2004-12-24 06   10.8    84.6     991    1    40          
2004-12-24 12   11.4    83.8     980    2    50          
2004-12-24 18   11.6    82.8     975    2    55          
2004-12-25 00   12.3    82.4     975    2    60          
2004-12-25 06   12.9    81.8     965    3    70          
2004-12-25 12   13.7    81.3     950    3    80          
2004-12-25 18   14.3    80.6     950    3    80          
2004-12-26 00   15.1    80.2     950    3    80          
2004-12-26 06   15.6    79.9     955    3    80          
2004-12-26 12   16.6    79.6     955    3    80          
2004-12-26 18   16.9    79.1     955    3    80          
2004-12-27 00   17.6    78.9     945    3    85          
2004-12-27 06   18.0    78.2     950    3    80          
2004-12-27 12   18.2    77.7     955    3    80          
2004-12-27 18   18.3    76.8     965    3    70          
2004-12-28 00   18.9    76.2     985    2    50          
2004-12-28 06   19.2    75.3     985    2    50          
2004-12-28 12   19.7    74.5     988    1    45          
2004-12-28 18   19.9    73.6     988    1    45          
2004-12-29 00   20.5    72.9     991    1    40          
2004-12-29 06   21.4    72.0     995    1    35          
2004-12-29 12   22.0    71.5     995    1    35          
2004-12-29 18   22.5    71.3     995    1    35          
2004-12-30 00   23.7    71.1     995    1    35          
2004-12-30 06   24.1    70.6    1000    1    40          
2004-12-30 12   25.0    70.0    1000    1    40          
2004-12-30 18   24.4    70.2     995    1    45          
2004-12-31 00   24.7    70.0     995    1    45          
2004-12-31 06   25.1    69.9     995    1    45          
2004-12-31 12   25.3    69.5     995    1    45          
2004-12-31 18   25.7    68.9     995    1    45          
2004-01-01 00   26.6    68.5     995    1    45          
2004-01-01 06   27.2    67.8     996    1    40          
2004-01-01 12   28.0    67.8    1000    1    40          
2004-01-01 18   28.9    67.8    1000    1    40          
2004-01-02 00   29.9    67.8    1000    1    40          
Winds are 10-min average.

Tropical cyclone tracks developed by Michael Bath using operational warnings and advisories and Google Maps.


[Australian Severe Weather index] [Copyright Notice] [Email Contacts] [Search This Site] [Privacy Policy]
Document: tropical_cyclone_chambo.htm Updated: 28 May 2013